sensor_id;sensor_type;location;lat;lon;timestamp;P1;durP1;ratioP1;P2;durP2;ratioP2
6017;SDS011;3037;51.068;13.780;2022-10-26T00:01:28;7.50;;;5.50;;
6017;SDS011;3037;51.068;13.780;2022-10-26T00:03:55;8.93;;;4.60;;
6017;SDS011;3037;51.068;13.780;2022-10-26T00:06:22;5.70;;;5.13;;
6017;SDS011;3037;51.068;13.780;2022-10-26T00:08:50;9.93;;;5.70;;
6017;SDS011;3037;51.068;13.780;2022-10-26T00:11:16;11.03;;;4.90;;
6017;SDS011;3037;51.068;13.780;2022-10-26T00:13:43;8.13;;;5.00;;
6017;SDS011;3037;51.068;13.780;2022-10-26T00:16:10;12.27;;;5.80;;
6017;SDS011;3037;51.068;13.780;2022-10-26T00:18:47;7.33;;;4.90;;
6017;SDS011;3037;51.068;13.780;2022-10-26T00:21:13;10.97;;;5.27;;
6017;SDS011;3037;51.068;13.780;2022-10-26T00:23:38;15.10;;;4.70;;
6017;SDS011;3037;51.068;13.780;2022-10-26T00:26:04;12.37;;;5.20;;
6017;SDS011;3037;51.068;13.780;2022-10-26T00:28:30;5.43;;;4.70;;
6017;SDS011;3037;51.068;13.780;2022-10-26T00:31:06;5.50;;;4.93;;
6017;SDS011;3037;51.068;13.780;2022-10-26T00:33:35;5.37;;;4.83;;
6017;SDS011;3037;51.068;13.780;2022-10-26T00:36:01;7.43;;;5.47;;
6017;SDS011;3037;51.068;13.780;2022-10-26T00:38:27;6.50;;;4.60;;
6017;SDS011;3037;51.068;13.780;2022-10-26T00:40:53;20.20;;;5.43;;
6017;SDS011;3037;51.068;13.780;2022-10-26T00:45:44;14.93;;;4.80;;
6017;SDS011;3037;51.068;13.780;2022-10-26T00:48:16;5.50;;;4.73;;
6017;SDS011;3037;51.068;13.780;2022-10-26T00:50:50;8.13;;;5.03;;
6017;SDS011;3037;51.068;13.780;2022-10-26T00:53:17;16.13;;;5.47;;
6017;SDS011;3037;51.068;13.780;2022-10-26T00:55:45;11.03;;;4.87;;
6017;SDS011;3037;51.068;13.780;2022-10-26T00:58:13;8.17;;;5.33;;
6017;SDS011;3037;51.068;13.780;2022-10-26T01:00:41;5.17;;;4.87;;
6017;SDS011;3037;51.068;13.780;2022-10-26T01:03:07;5.10;;;4.70;;
6017;SDS011;3037;51.068;13.780;2022-10-26T01:05:35;6.50;;;5.13;;
6017;SDS011;3037;51.068;13.780;2022-10-26T01:08:04;8.67;;;4.80;;
6017;SDS011;3037;51.068;13.780;2022-10-26T01:10:31;11.67;;;5.87;;
6017;SDS011;3037;51.068;13.780;2022-10-26T01:12:58;13.90;;;5.27;;
6017;SDS011;3037;51.068;13.780;2022-10-26T01:16:26;8.23;;;5.97;;
6017;SDS011;3037;51.068;13.780;2022-10-26T01:21:36;7.77;;;6.17;;
6017;SDS011;3037;51.068;13.780;2022-10-26T01:26:58;9.93;;;5.30;;
6017;SDS011;3037;51.068;13.780;2022-10-26T01:35:37;10.43;;;5.43;;
6017;SDS011;3037;51.068;13.780;2022-10-26T01:41:14;5.90;;;4.73;;
6017;SDS011;3037;51.068;13.780;2022-10-26T01:43:53;5.20;;;4.50;;
6017;SDS011;3037;51.068;13.780;2022-10-26T01:46:22;12.70;;;4.17;;
6017;SDS011;3037;51.068;13.780;2022-10-26T01:48:50;6.00;;;4.90;;
6017;SDS011;3037;51.068;13.780;2022-10-26T01:51:21;12.77;;;5.70;;
6017;SDS011;3037;51.068;13.780;2022-10-26T01:53:49;12.17;;;6.07;;
6017;SDS011;3037;51.068;13.780;2022-10-26T01:56:21;6.57;;;5.77;;
6017;SDS011;3037;51.068;13.780;2022-10-26T02:15:42;9.17;;;4.93;;
6017;SDS011;3037;51.068;13.780;2022-10-26T02:18:30;13.83;;;5.50;;
6017;SDS011;3037;51.068;13.780;2022-10-26T02:21:04;13.93;;;6.40;;
6017;SDS011;3037;51.068;13.780;2022-10-26T02:23:35;13.30;;;5.17;;
6017;SDS011;3037;51.068;13.780;2022-10-26T02:26:04;8.60;;;5.80;;
6017;SDS011;3037;51.068;13.780;2022-10-26T02:28:34;6.40;;;5.77;;
6017;SDS011;3037;51.068;13.780;2022-10-26T02:31:03;6.90;;;5.67;;
6017;SDS011;3037;51.068;13.780;2022-10-26T02:33:32;8.07;;;5.73;;
6017;SDS011;3037;51.068;13.780;2022-10-26T02:36:03;9.90;;;5.57;;
6017;SDS011;3037;51.068;13.780;2022-10-26T02:38:32;14.27;;;5.87;;
6017;SDS011;3037;51.068;13.780;2022-10-26T02:41:01;7.93;;;5.60;;
6017;SDS011;3037;51.068;13.780;2022-10-26T02:43:28;6.47;;;5.73;;
6017;SDS011;3037;51.068;13.780;2022-10-26T02:46:00;12.40;;;7.13;;
6017;SDS011;3037;51.068;13.780;2022-10-26T02:48:31;9.37;;;6.33;;
6017;SDS011;3037;51.068;13.780;2022-10-26T02:51:00;9.80;;;6.10;;
6017;SDS011;3037;51.068;13.780;2022-10-26T02:53:41;15.13;;;6.17;;
6017;SDS011;3037;51.068;13.780;2022-10-26T02:56:20;8.50;;;6.20;;
6017;SDS011;3037;51.068;13.780;2022-10-26T02:58:51;7.80;;;7.00;;
6017;SDS011;3037;51.068;13.780;2022-10-26T03:01:21;13.03;;;6.07;;
6017;SDS011;3037;51.068;13.780;2022-10-26T03:03:47;13.00;;;5.43;;
6017;SDS011;3037;51.068;13.780;2022-10-26T03:06:19;15.77;;;6.33;;
6017;SDS011;3037;51.068;13.780;2022-10-26T03:08:46;7.70;;;5.47;;
6017;SDS011;3037;51.068;13.780;2022-10-26T03:11:12;11.80;;;6.00;;
6017;SDS011;3037;51.068;13.780;2022-10-26T03:13:37;9.03;;;5.57;;
6017;SDS011;3037;51.068;13.780;2022-10-26T03:16:03;8.63;;;5.63;;
6017;SDS011;3037;51.068;13.780;2022-10-26T03:18:29;12.00;;;6.10;;
6017;SDS011;3037;51.068;13.780;2022-10-26T03:20:54;10.47;;;6.00;;
6017;SDS011;3037;51.068;13.780;2022-10-26T03:23:20;14.73;;;5.57;;
6017;SDS011;3037;51.068;13.780;2022-10-26T03:25:45;10.70;;;5.63;;
6017;SDS011;3037;51.068;13.780;2022-10-26T03:28:11;8.23;;;6.10;;
6017;SDS011;3037;51.068;13.780;2022-10-26T03:30:36;8.40;;;5.90;;
6017;SDS011;3037;51.068;13.780;2022-10-26T03:33:02;7.10;;;6.40;;
6017;SDS011;3037;51.068;13.780;2022-10-26T03:35:27;11.10;;;7.53;;
6017;SDS011;3037;51.068;13.780;2022-10-26T03:37:53;13.70;;;7.03;;
6017;SDS011;3037;51.068;13.780;2022-10-26T03:40:19;7.23;;;6.63;;
6017;SDS011;3037;51.068;13.780;2022-10-26T03:42:44;13.67;;;7.73;;
6017;SDS011;3037;51.068;13.780;2022-10-26T03:45:10;6.70;;;6.10;;
6017;SDS011;3037;51.068;13.780;2022-10-26T03:47:41;15.30;;;6.73;;
6017;SDS011;3037;51.068;13.780;2022-10-26T03:50:13;10.07;;;6.27;;
6017;SDS011;3037;51.068;13.780;2022-10-26T03:52:41;7.90;;;6.43;;
6017;SDS011;3037;51.068;13.780;2022-10-26T03:55:07;8.03;;;6.87;;
6017;SDS011;3037;51.068;13.780;2022-10-26T03:57:33;10.57;;;6.70;;
6017;SDS011;3037;51.068;13.780;2022-10-26T04:00:04;9.27;;;6.93;;
6017;SDS011;3037;51.068;13.780;2022-10-26T04:02:30;12.07;;;7.30;;
6017;SDS011;3037;51.068;13.780;2022-10-26T04:04:55;11.13;;;8.07;;
6017;SDS011;3037;51.068;13.780;2022-10-26T04:07:21;15.23;;;7.60;;
6017;SDS011;3037;51.068;13.780;2022-10-26T04:09:46;10.80;;;7.20;;
6017;SDS011;3037;51.068;13.780;2022-10-26T04:12:12;11.60;;;8.07;;
6017;SDS011;3037;51.068;13.780;2022-10-26T04:14:37;14.13;;;7.07;;
6017;SDS011;3037;51.068;13.780;2022-10-26T04:17:03;12.17;;;7.40;;
6017;SDS011;3037;51.068;13.780;2022-10-26T04:19:28;14.27;;;7.00;;
6017;SDS011;3037;51.068;13.780;2022-10-26T04:21:54;9.83;;;7.60;;
6017;SDS011;3037;51.068;13.780;2022-10-26T04:24:20;15.10;;;7.80;;
6017;SDS011;3037;51.068;13.780;2022-10-26T04:26:45;15.07;;;8.00;;
6017;SDS011;3037;51.068;13.780;2022-10-26T04:29:11;8.60;;;7.77;;
6017;SDS011;3037;51.068;13.780;2022-10-26T04:31:37;13.87;;;8.97;;
6017;SDS011;3037;51.068;13.780;2022-10-26T04:34:03;15.10;;;8.70;;
6017;SDS011;3037;51.068;13.780;2022-10-26T04:36:29;10.47;;;8.50;;
6017;SDS011;3037;51.068;13.780;2022-10-26T04:38:55;13.80;;;8.50;;
6017;SDS011;3037;51.068;13.780;2022-10-26T04:41:20;13.67;;;8.50;;
6017;SDS011;3037;51.068;13.780;2022-10-26T04:43:46;16.00;;;8.10;;
6017;SDS011;3037;51.068;13.780;2022-10-26T04:46:11;16.77;;;7.90;;
6017;SDS011;3037;51.068;13.780;2022-10-26T04:48:38;9.23;;;7.43;;
6017;SDS011;3037;51.068;13.780;2022-10-26T04:51:04;13.20;;;8.30;;
6017;SDS011;3037;51.068;13.780;2022-10-26T04:53:29;11.70;;;8.60;;
6017;SDS011;3037;51.068;13.780;2022-10-26T04:55:58;15.60;;;8.50;;
6017;SDS011;3037;51.068;13.780;2022-10-26T04:58:25;16.53;;;8.77;;
6017;SDS011;3037;51.068;13.780;2022-10-26T05:00:51;17.77;;;9.67;;
6017;SDS011;3037;51.068;13.780;2022-10-26T05:03:17;11.50;;;7.90;;
6017;SDS011;3037;51.068;13.780;2022-10-26T05:05:42;18.70;;;8.73;;
6017;SDS011;3037;51.068;13.780;2022-10-26T05:08:08;16.50;;;8.40;;
6017;SDS011;3037;51.068;13.780;2022-10-26T05:10:33;19.20;;;8.23;;
6017;SDS011;3037;51.068;13.780;2022-10-26T05:12:59;18.50;;;9.07;;
6017;SDS011;3037;51.068;13.780;2022-10-26T05:15:26;10.93;;;8.73;;
6017;SDS011;3037;51.068;13.780;2022-10-26T05:20:27;10.67;;;7.67;;
6017;SDS011;3037;51.068;13.780;2022-10-26T05:22:58;14.10;;;7.23;;
6017;SDS011;3037;51.068;13.780;2022-10-26T05:25:26;11.70;;;7.80;;
6017;SDS011;3037;51.068;13.780;2022-10-26T05:27:57;13.10;;;7.67;;
6017;SDS011;3037;51.068;13.780;2022-10-26T05:30:26;9.80;;;8.43;;
6017;SDS011;3037;51.068;13.780;2022-10-26T05:32:56;13.77;;;9.20;;
6017;SDS011;3037;51.068;13.780;2022-10-26T05:35:23;13.60;;;7.60;;
6017;SDS011;3037;51.068;13.780;2022-10-26T05:37:49;10.20;;;8.27;;
6017;SDS011;3037;51.068;13.780;2022-10-26T05:40:15;13.43;;;8.87;;
6017;SDS011;3037;51.068;13.780;2022-10-26T05:42:41;15.97;;;8.57;;
6017;SDS011;3037;51.068;13.780;2022-10-26T05:45:07;9.80;;;8.70;;
6017;SDS011;3037;51.068;13.780;2022-10-26T05:47:39;14.27;;;8.63;;
6017;SDS011;3037;51.068;13.780;2022-10-26T05:50:05;14.67;;;9.27;;
6017;SDS011;3037;51.068;13.780;2022-10-26T05:52:41;13.00;;;8.90;;
6017;SDS011;3037;51.068;13.780;2022-10-26T05:55:12;17.80;;;8.93;;
6017;SDS011;3037;51.068;13.780;2022-10-26T05:57:39;17.73;;;8.00;;
6017;SDS011;3037;51.068;13.780;2022-10-26T06:00:06;9.30;;;7.37;;
6017;SDS011;3037;51.068;13.780;2022-10-26T06:03:29;14.63;;;9.10;;
6017;SDS011;3037;51.068;13.780;2022-10-26T06:05:37;12.00;;;8.27;;
6017;SDS011;3037;51.068;13.780;2022-10-26T06:08:14;15.10;;;8.57;;
6017;SDS011;3037;51.068;13.780;2022-10-26T06:10:40;8.80;;;7.83;;
6017;SDS011;3037;51.068;13.780;2022-10-26T06:13:06;12.03;;;7.20;;
6017;SDS011;3037;51.068;13.780;2022-10-26T06:15:34;15.80;;;8.30;;
6017;SDS011;3037;51.068;13.780;2022-10-26T06:18:14;13.93;;;7.70;;
6017;SDS011;3037;51.068;13.780;2022-10-26T06:24:16;13.23;;;7.57;;
6017;SDS011;3037;51.068;13.780;2022-10-26T06:30:01;17.37;;;8.17;;
6017;SDS011;3037;51.068;13.780;2022-10-26T06:32:27;13.03;;;9.13;;
6017;SDS011;3037;51.068;13.780;2022-10-26T06:34:57;11.87;;;8.73;;
6017;SDS011;3037;51.068;13.780;2022-10-26T06:37:47;10.70;;;9.43;;
6017;SDS011;3037;51.068;13.780;2022-10-26T06:40:14;14.27;;;8.67;;
6017;SDS011;3037;51.068;13.780;2022-10-26T06:42:41;16.37;;;8.00;;
6017;SDS011;3037;51.068;13.780;2022-10-26T06:45:11;15.13;;;8.30;;
6017;SDS011;3037;51.068;13.780;2022-10-26T06:47:59;9.80;;;6.57;;
6017;SDS011;3037;51.068;13.780;2022-10-26T06:50:29;13.50;;;9.10;;
6017;SDS011;3037;51.068;13.780;2022-10-26T06:53:20;10.27;;;6.80;;
6017;SDS011;3037;51.068;13.780;2022-10-26T06:55:49;16.83;;;8.40;;
6017;SDS011;3037;51.068;13.780;2022-10-26T06:58:19;10.23;;;7.37;;
6017;SDS011;3037;51.068;13.780;2022-10-26T07:00:48;11.07;;;6.77;;
6017;SDS011;3037;51.068;13.780;2022-10-26T07:03:18;10.97;;;8.10;;
6017;SDS011;3037;51.068;13.780;2022-10-26T07:05:43;15.87;;;8.40;;
6017;SDS011;3037;51.068;13.780;2022-10-26T07:08:09;7.53;;;6.60;;
6017;SDS011;3037;51.068;13.780;2022-10-26T07:10:36;6.40;;;5.37;;
6017;SDS011;3037;51.068;13.780;2022-10-26T07:13:06;21.43;;;6.17;;
6017;SDS011;3037;51.068;13.780;2022-10-26T07:15:33;7.40;;;6.00;;
6017;SDS011;3037;51.068;13.780;2022-10-26T07:17:59;8.53;;;5.13;;
6017;SDS011;3037;51.068;13.780;2022-10-26T07:20:25;6.20;;;5.47;;
6017;SDS011;3037;51.068;13.780;2022-10-26T07:22:54;6.80;;;5.30;;
6017;SDS011;3037;51.068;13.780;2022-10-26T07:25:21;6.37;;;5.60;;
6017;SDS011;3037;51.068;13.780;2022-10-26T07:27:47;8.10;;;5.33;;
6017;SDS011;3037;51.068;13.780;2022-10-26T07:30:13;8.93;;;5.20;;
6017;SDS011;3037;51.068;13.780;2022-10-26T07:32:39;12.67;;;5.60;;
6017;SDS011;3037;51.068;13.780;2022-10-26T07:35:05;5.40;;;4.90;;
6017;SDS011;3037;51.068;13.780;2022-10-26T07:37:31;7.27;;;4.73;;
6017;SDS011;3037;51.068;13.780;2022-10-26T07:39:56;7.03;;;5.67;;
6017;SDS011;3037;51.068;13.780;2022-10-26T07:42:22;8.10;;;5.03;;
6017;SDS011;3037;51.068;13.780;2022-10-26T07:44:47;10.03;;;5.47;;
6017;SDS011;3037;51.068;13.780;2022-10-26T07:47:13;6.10;;;5.33;;
6017;SDS011;3037;51.068;13.780;2022-10-26T07:49:39;5.63;;;5.07;;
6017;SDS011;3037;51.068;13.780;2022-10-26T07:52:04;5.70;;;5.10;;
6017;SDS011;3037;51.068;13.780;2022-10-26T07:54:30;6.53;;;4.90;;
6017;SDS011;3037;51.068;13.780;2022-10-26T07:56:56;13.30;;;5.30;;
6017;SDS011;3037;51.068;13.780;2022-10-26T07:59:22;5.50;;;4.70;;
6017;SDS011;3037;51.068;13.780;2022-10-26T08:01:47;5.90;;;5.10;;
6017;SDS011;3037;51.068;13.780;2022-10-26T08:04:13;6.50;;;5.80;;
6017;SDS011;3037;51.068;13.780;2022-10-26T08:06:39;7.20;;;4.87;;
6017;SDS011;3037;51.068;13.780;2022-10-26T08:09:05;11.10;;;5.90;;
6017;SDS011;3037;51.068;13.780;2022-10-26T08:11:30;5.70;;;5.20;;
6017;SDS011;3037;51.068;13.780;2022-10-26T08:13:56;5.70;;;5.20;;
6017;SDS011;3037;51.068;13.780;2022-10-26T08:16:22;6.93;;;5.73;;
6017;SDS011;3037;51.068;13.780;2022-10-26T08:18:48;5.80;;;5.30;;
6017;SDS011;3037;51.068;13.780;2022-10-26T08:21:14;8.70;;;5.93;;
6017;SDS011;3037;51.068;13.780;2022-10-26T08:23:40;8.00;;;5.70;;
6017;SDS011;3037;51.068;13.780;2022-10-26T08:26:06;7.83;;;5.57;;
6017;SDS011;3037;51.068;13.780;2022-10-26T08:28:33;5.50;;;5.10;;
6017;SDS011;3037;51.068;13.780;2022-10-26T08:30:58;5.27;;;4.80;;
6017;SDS011;3037;51.068;13.780;2022-10-26T08:33:24;12.03;;;5.40;;
6017;SDS011;3037;51.068;13.780;2022-10-26T08:35:57;8.93;;;5.40;;
6017;SDS011;3037;51.068;13.780;2022-10-26T08:38:24;7.60;;;5.17;;
6017;SDS011;3037;51.068;13.780;2022-10-26T08:40:50;6.40;;;4.30;;
6017;SDS011;3037;51.068;13.780;2022-10-26T08:43:19;4.70;;;4.30;;
6017;SDS011;3037;51.068;13.780;2022-10-26T08:46:20;8.07;;;5.90;;
6017;SDS011;3037;51.068;13.780;2022-10-26T08:48:53;8.03;;;4.80;;
6017;SDS011;3037;51.068;13.780;2022-10-26T08:51:24;5.87;;;5.37;;
6017;SDS011;3037;51.068;13.780;2022-10-26T08:54:00;6.43;;;5.77;;
6017;SDS011;3037;51.068;13.780;2022-10-26T08:56:39;7.60;;;5.10;;
6017;SDS011;3037;51.068;13.780;2022-10-26T09:01:37;10.97;;;4.83;;
6017;SDS011;3037;51.068;13.780;2022-10-26T09:04:05;5.47;;;4.73;;
6017;SDS011;3037;51.068;13.780;2022-10-26T09:07:00;5.93;;;4.10;;
6017;SDS011;3037;51.068;13.780;2022-10-26T09:12:24;6.83;;;3.50;;
6017;SDS011;3037;51.068;13.780;2022-10-26T09:18:00;5.37;;;4.47;;
6017;SDS011;3037;51.068;13.780;2022-10-26T09:20:53;7.70;;;3.60;;
6017;SDS011;3037;51.068;13.780;2022-10-26T09:23:48;8.47;;;4.13;;
6017;SDS011;3037;51.068;13.780;2022-10-26T09:27:03;7.00;;;5.07;;
6017;SDS011;3037;51.068;13.780;2022-10-26T09:29:11;7.00;;;4.70;;
6017;SDS011;3037;51.068;13.780;2022-10-26T09:31:38;5.23;;;4.23;;
6017;SDS011;3037;51.068;13.780;2022-10-26T09:34:06;5.83;;;3.90;;
6017;SDS011;3037;51.068;13.780;2022-10-26T09:36:38;7.30;;;4.60;;
6017;SDS011;3037;51.068;13.780;2022-10-26T09:39:18;9.83;;;4.23;;
6017;SDS011;3037;51.068;13.780;2022-10-26T09:41:54;5.70;;;5.13;;
6017;SDS011;3037;51.068;13.780;2022-10-26T09:44:56;4.80;;;4.30;;
6017;SDS011;3037;51.068;13.780;2022-10-26T09:47:33;7.43;;;4.30;;
6017;SDS011;3037;51.068;13.780;2022-10-26T09:50:44;9.53;;;4.97;;
6017;SDS011;3037;51.068;13.780;2022-10-26T09:52:55;8.07;;;5.23;;
6017;SDS011;3037;51.068;13.780;2022-10-26T09:55:21;7.90;;;5.40;;
6017;SDS011;3037;51.068;13.780;2022-10-26T09:57:47;6.77;;;5.17;;
6017;SDS011;3037;51.068;13.780;2022-10-26T10:00:18;7.37;;;5.77;;
6017;SDS011;3037;51.068;13.780;2022-10-26T10:03:15;6.13;;;5.00;;
6017;SDS011;3037;51.068;13.780;2022-10-26T10:06:36;6.90;;;5.20;;
6017;SDS011;3037;51.068;13.780;2022-10-26T10:11:47;5.83;;;4.53;;
6017;SDS011;3037;51.068;13.780;2022-10-26T10:14:22;4.90;;;4.50;;
6017;SDS011;3037;51.068;13.780;2022-10-26T10:19:22;4.73;;;4.40;;
6017;SDS011;3037;51.068;13.780;2022-10-26T10:21:59;6.37;;;5.10;;
6017;SDS011;3037;51.068;13.780;2022-10-26T10:24:33;6.00;;;5.20;;
6017;SDS011;3037;51.068;13.780;2022-10-26T10:27:07;7.07;;;4.27;;
6017;SDS011;3037;51.068;13.780;2022-10-26T10:29:42;7.30;;;4.50;;
6017;SDS011;3037;51.068;13.780;2022-10-26T10:32:17;5.17;;;4.13;;
6017;SDS011;3037;51.068;13.780;2022-10-26T10:34:52;15.83;;;5.17;;
6017;SDS011;3037;51.068;13.780;2022-10-26T10:39:48;9.13;;;4.40;;
6017;SDS011;3037;51.068;13.780;2022-10-26T10:42:20;6.40;;;4.40;;
6017;SDS011;3037;51.068;13.780;2022-10-26T10:44:52;6.00;;;4.03;;
6017;SDS011;3037;51.068;13.780;2022-10-26T10:47:21;6.00;;;3.27;;
6017;SDS011;3037;51.068;13.780;2022-10-26T10:50:05;5.53;;;3.57;;
6017;SDS011;3037;51.068;13.780;2022-10-26T10:52:38;12.53;;;4.17;;
6017;SDS011;3037;51.068;13.780;2022-10-26T11:00:35;3.40;;;3.17;;
6017;SDS011;3037;51.068;13.780;2022-10-26T11:03:16;7.37;;;2.83;;
6017;SDS011;3037;51.068;13.780;2022-10-26T11:05:49;6.10;;;3.47;;
6017;SDS011;3037;51.068;13.780;2022-10-26T11:10:56;6.00;;;3.37;;
6017;SDS011;3037;51.068;13.780;2022-10-26T11:13:37;3.13;;;2.93;;
6017;SDS011;3037;51.068;13.780;2022-10-26T11:16:29;5.03;;;2.53;;
6017;SDS011;3037;51.068;13.780;2022-10-26T11:21:58;2.77;;;2.40;;
6017;SDS011;3037;51.068;13.780;2022-10-26T11:24:34;6.60;;;2.40;;
6017;SDS011;3037;51.068;13.780;2022-10-26T11:29:46;4.73;;;1.70;;
6017;SDS011;3037;51.068;13.780;2022-10-26T11:32:33;7.33;;;2.40;;
6017;SDS011;3037;51.068;13.780;2022-10-26T11:35:15;3.33;;;2.07;;
6017;SDS011;3037;51.068;13.780;2022-10-26T11:46:37;1.60;;;1.50;;
6017;SDS011;3037;51.068;13.780;2022-10-26T11:55:08;3.67;;;1.93;;
6017;SDS011;3037;51.068;13.780;2022-10-26T11:57:16;2.50;;;1.90;;
6017;SDS011;3037;51.068;13.780;2022-10-26T11:59:43;4.47;;;2.30;;
6017;SDS011;3037;51.068;13.780;2022-10-26T12:02:22;3.77;;;1.93;;
6017;SDS011;3037;51.068;13.780;2022-10-26T12:04:53;4.00;;;2.17;;
6017;SDS011;3037;51.068;13.780;2022-10-26T12:07:33;3.10;;;2.27;;
6017;SDS011;3037;51.068;13.780;2022-10-26T12:10:02;2.40;;;2.00;;
6017;SDS011;3037;51.068;13.780;2022-10-26T12:12:37;10.80;;;2.50;;
6017;SDS011;3037;51.068;13.780;2022-10-26T12:18:00;3.10;;;2.40;;
6017;SDS011;3037;51.068;13.780;2022-10-26T12:23:17;3.60;;;2.30;;
6017;SDS011;3037;51.068;13.780;2022-10-26T12:25:43;4.73;;;1.90;;
6017;SDS011;3037;51.068;13.780;2022-10-26T12:33:56;4.17;;;2.40;;
6017;SDS011;3037;51.068;13.780;2022-10-26T12:39:29;4.20;;;2.40;;
6017;SDS011;3037;51.068;13.780;2022-10-26T12:44:38;2.93;;;2.00;;
6017;SDS011;3037;51.068;13.780;2022-10-26T12:49:57;3.73;;;2.30;;
6017;SDS011;3037;51.068;13.780;2022-10-26T12:52:30;6.10;;;2.30;;
6017;SDS011;3037;51.068;13.780;2022-10-26T12:55:08;5.03;;;2.47;;
6017;SDS011;3037;51.068;13.780;2022-10-26T12:57:49;6.83;;;2.90;;
6017;SDS011;3037;51.068;13.780;2022-10-26T13:00:33;3.47;;;1.70;;
6017;SDS011;3037;51.068;13.780;2022-10-26T13:03:25;8.77;;;2.77;;
6017;SDS011;3037;51.068;13.780;2022-10-26T13:08:57;2.13;;;1.90;;
6017;SDS011;3037;51.068;13.780;2022-10-26T13:13:53;14.67;;;2.50;;
6017;SDS011;3037;51.068;13.780;2022-10-26T13:16:21;1.87;;;1.70;;
6017;SDS011;3037;51.068;13.780;2022-10-26T13:18:50;6.23;;;1.93;;
6017;SDS011;3037;51.068;13.780;2022-10-26T13:21:16;2.10;;;1.67;;
6017;SDS011;3037;51.068;13.780;2022-10-26T13:26:19;4.67;;;2.43;;
6017;SDS011;3037;51.068;13.780;2022-10-26T13:28:52;2.60;;;1.53;;
6017;SDS011;3037;51.068;13.780;2022-10-26T13:39:34;9.87;;;2.33;;
6017;SDS011;3037;51.068;13.780;2022-10-26T13:42:02;10.20;;;2.80;;
6017;SDS011;3037;51.068;13.780;2022-10-26T13:49:54;10.47;;;3.33;;
6017;SDS011;3037;51.068;13.780;2022-10-26T13:52:43;8.60;;;3.50;;
6017;SDS011;3037;51.068;13.780;2022-10-26T13:57:45;7.60;;;2.80;;
6017;SDS011;3037;51.068;13.780;2022-10-26T14:00:24;4.67;;;2.90;;
6017;SDS011;3037;51.068;13.780;2022-10-26T14:02:50;4.33;;;3.20;;
6017;SDS011;3037;51.068;13.780;2022-10-26T14:05:16;4.37;;;2.40;;
6017;SDS011;3037;51.068;13.780;2022-10-26T14:10:27;3.93;;;2.37;;
6017;SDS011;3037;51.068;13.780;2022-10-26T14:13:01;2.63;;;2.43;;
6017;SDS011;3037;51.068;13.780;2022-10-26T14:15:37;13.50;;;3.10;;
6017;SDS011;3037;51.068;13.780;2022-10-26T14:18:12;6.33;;;2.60;;
6017;SDS011;3037;51.068;13.780;2022-10-26T14:20:49;3.33;;;2.83;;
6017;SDS011;3037;51.068;13.780;2022-10-26T14:23:23;8.37;;;3.00;;
6017;SDS011;3037;51.068;13.780;2022-10-26T14:25:53;4.13;;;2.90;;
6017;SDS011;3037;51.068;13.780;2022-10-26T14:28:20;3.77;;;2.50;;
6017;SDS011;3037;51.068;13.780;2022-10-26T14:30:50;5.60;;;2.50;;
6017;SDS011;3037;51.068;13.780;2022-10-26T14:33:24;4.13;;;2.47;;
6017;SDS011;3037;51.068;13.780;2022-10-26T14:35:52;4.20;;;2.63;;
6017;SDS011;3037;51.068;13.780;2022-10-26T14:38:20;5.00;;;2.70;;
6017;SDS011;3037;51.068;13.780;2022-10-26T14:40:54;7.10;;;3.20;;
6017;SDS011;3037;51.068;13.780;2022-10-26T14:43:21;3.17;;;2.33;;
6017;SDS011;3037;51.068;13.780;2022-10-26T14:45:49;5.53;;;2.53;;
6017;SDS011;3037;51.068;13.780;2022-10-26T14:48:21;3.47;;;2.70;;
6017;SDS011;3037;51.068;13.780;2022-10-26T14:50:58;4.30;;;3.50;;
6017;SDS011;3037;51.068;13.780;2022-10-26T14:53:31;4.13;;;3.17;;
6017;SDS011;3037;51.068;13.780;2022-10-26T14:55:59;6.27;;;2.70;;
6017;SDS011;3037;51.068;13.780;2022-10-26T14:58:27;4.03;;;2.37;;
6017;SDS011;3037;51.068;13.780;2022-10-26T15:01:13;16.27;;;3.30;;
6017;SDS011;3037;51.068;13.780;2022-10-26T15:03:40;9.50;;;2.47;;
6017;SDS011;3037;51.068;13.780;2022-10-26T15:06:20;13.17;;;2.97;;
6017;SDS011;3037;51.068;13.780;2022-10-26T15:08:56;9.80;;;3.20;;
6017;SDS011;3037;51.068;13.780;2022-10-26T15:11:24;7.07;;;3.30;;
6017;SDS011;3037;51.068;13.780;2022-10-26T15:13:51;3.53;;;3.07;;
6017;SDS011;3037;51.068;13.780;2022-10-26T15:16:18;6.00;;;3.30;;
6017;SDS011;3037;51.068;13.780;2022-10-26T15:18:52;14.03;;;3.10;;
6017;SDS011;3037;51.068;13.780;2022-10-26T15:23:58;4.80;;;2.90;;
6017;SDS011;3037;51.068;13.780;2022-10-26T15:26:24;7.47;;;3.67;;
6017;SDS011;3037;51.068;13.780;2022-10-26T15:28:50;10.13;;;3.70;;
6017;SDS011;3037;51.068;13.780;2022-10-26T15:34:05;9.50;;;4.20;;
6017;SDS011;3037;51.068;13.780;2022-10-26T15:36:28;6.20;;;4.60;;
6017;SDS011;3037;51.068;13.780;2022-10-26T15:38:56;8.47;;;4.27;;
6017;SDS011;3037;51.068;13.780;2022-10-26T15:41:27;5.07;;;3.83;;
6017;SDS011;3037;51.068;13.780;2022-10-26T15:43:55;9.80;;;4.30;;
6017;SDS011;3037;51.068;13.780;2022-10-26T15:46:23;15.60;;;4.70;;
6017;SDS011;3037;51.068;13.780;2022-10-26T15:48:53;6.60;;;4.33;;
6017;SDS011;3037;51.068;13.780;2022-10-26T15:51:21;3.93;;;3.63;;
6017;SDS011;3037;51.068;13.780;2022-10-26T15:53:47;15.50;;;4.23;;
6017;SDS011;3037;51.068;13.780;2022-10-26T15:56:14;5.53;;;4.90;;
6017;SDS011;3037;51.068;13.780;2022-10-26T15:58:41;8.03;;;4.30;;
6017;SDS011;3037;51.068;13.780;2022-10-26T16:04:02;7.13;;;5.40;;
6017;SDS011;3037;51.068;13.780;2022-10-26T16:06:29;20.07;;;5.17;;
6017;SDS011;3037;51.068;13.780;2022-10-26T16:08:57;7.13;;;5.13;;
6017;SDS011;3037;51.068;13.780;2022-10-26T16:11:25;10.90;;;5.37;;
6017;SDS011;3037;51.068;13.780;2022-10-26T16:13:51;10.73;;;5.83;;
6017;SDS011;3037;51.068;13.780;2022-10-26T16:16:18;7.93;;;5.70;;
6017;SDS011;3037;51.068;13.780;2022-10-26T16:18:44;6.13;;;4.80;;
6017;SDS011;3037;51.068;13.780;2022-10-26T16:21:22;12.10;;;5.77;;
6017;SDS011;3037;51.068;13.780;2022-10-26T16:23:49;7.90;;;5.47;;
6017;SDS011;3037;51.068;13.780;2022-10-26T16:26:17;15.53;;;7.93;;
6017;SDS011;3037;51.068;13.780;2022-10-26T16:28:42;15.47;;;6.00;;
6017;SDS011;3037;51.068;13.780;2022-10-26T16:31:15;24.57;;;9.20;;
6017;SDS011;3037;51.068;13.780;2022-10-26T16:33:42;9.50;;;6.30;;
6017;SDS011;3037;51.068;13.780;2022-10-26T16:36:08;12.30;;;5.67;;
6017;SDS011;3037;51.068;13.780;2022-10-26T16:38:35;14.00;;;6.20;;
6017;SDS011;3037;51.068;13.780;2022-10-26T16:41:14;19.20;;;6.00;;
6017;SDS011;3037;51.068;13.780;2022-10-26T16:43:43;12.00;;;5.93;;
6017;SDS011;3037;51.068;13.780;2022-10-26T16:46:11;12.23;;;6.50;;
6017;SDS011;3037;51.068;13.780;2022-10-26T16:48:43;8.57;;;5.80;;
6017;SDS011;3037;51.068;13.780;2022-10-26T16:53:46;7.57;;;5.80;;
6017;SDS011;3037;51.068;13.780;2022-10-26T16:56:15;17.27;;;7.33;;
6017;SDS011;3037;51.068;13.780;2022-10-26T16:58:42;15.67;;;7.53;;
6017;SDS011;3037;51.068;13.780;2022-10-26T17:01:08;11.30;;;6.43;;
6017;SDS011;3037;51.068;13.780;2022-10-26T17:03:36;11.07;;;7.00;;
6017;SDS011;3037;51.068;13.780;2022-10-26T17:06:03;17.67;;;8.80;;
6017;SDS011;3037;51.068;13.780;2022-10-26T17:08:31;13.80;;;8.70;;
6017;SDS011;3037;51.068;13.780;2022-10-26T17:11:17;16.20;;;8.50;;
6017;SDS011;3037;51.068;13.780;2022-10-26T17:13:44;11.63;;;8.83;;
6017;SDS011;3037;51.068;13.780;2022-10-26T17:16:12;10.47;;;7.77;;
6017;SDS011;3037;51.068;13.780;2022-10-26T17:18:40;18.60;;;8.60;;
6017;SDS011;3037;51.068;13.780;2022-10-26T17:21:07;16.90;;;8.60;;
6017;SDS011;3037;51.068;13.780;2022-10-26T17:23:33;16.73;;;10.00;;
6017;SDS011;3037;51.068;13.780;2022-10-26T17:26:00;16.90;;;8.20;;
6017;SDS011;3037;51.068;13.780;2022-10-26T17:28:27;14.57;;;7.77;;
6017;SDS011;3037;51.068;13.780;2022-10-26T17:31:00;15.93;;;8.70;;
6017;SDS011;3037;51.068;13.780;2022-10-26T17:33:26;10.80;;;8.40;;
6017;SDS011;3037;51.068;13.780;2022-10-26T17:35:52;14.30;;;7.83;;
6017;SDS011;3037;51.068;13.780;2022-10-26T17:38:17;14.47;;;9.17;;
6017;SDS011;3037;51.068;13.780;2022-10-26T17:40:43;26.07;;;9.13;;